KDRM

Drummond Island Airport

Drummond Island, Michigan, USA
METAR KDRM 261315Z AUTO 16004KT 3SM BR OVC001 15/15 A2978 RMK AO2 T01510148
Observed Flight Rules
May-26 @ 13:15 UTC (24 minutes ago) Instrument Flight Rules
Wind Visibility Clouds Conditions
160° at 4 knots 3 miles
  • Overcast at 100' AGL
  • Mist
Temperatures Readings
Current 15°C / 59°F
Dewpoint 15°C / 59°F
Humidity 100%
Altimeter 29.78" Hg
Pressure 1008 hPa
Elevation 204
METAR KDRM 261315Z AUTO 16004KT 3SM BR OVC001 15/15 A2978 RMK AO2 T01510148
Observed Flight Rules
May-26 @ 13:15 UTC
(24 minutes ago)
LIFR
Wind Visibility
160° at 4 knots 3 miles
Clouds
  • Overcast at 100' AGL
Conditions
  • Mist
Temperature Dewpoint
15°C / 59°F 15°C / 59°F
Humidity Altimeter Pressure
100% 29.78" Hg 1008 hPa